sensor_id;sensor_type;location;lat;lon;timestamp;P1;durP1;ratioP1;P2;durP2;ratioP2
52188;SDS011;38162;45.926;13.608;2023-06-26T00:01:16;7.72;;;6.40;;
52188;SDS011;38162;45.926;13.608;2023-06-26T00:03:46;7.30;;;6.47;;
52188;SDS011;38162;45.926;13.608;2023-06-26T00:06:12;10.30;;;6.70;;
52188;SDS011;38162;45.926;13.608;2023-06-26T00:08:38;8.02;;;6.68;;
52188;SDS011;38162;45.926;13.608;2023-06-26T00:11:04;11.25;;;7.10;;
52188;SDS011;38162;45.926;13.608;2023-06-26T00:13:30;7.55;;;6.05;;
52188;SDS011;38162;45.926;13.608;2023-06-26T00:15:55;12.27;;;7.93;;
52188;SDS011;38162;45.926;13.608;2023-06-26T00:18:21;7.93;;;7.00;;
52188;SDS011;38162;45.926;13.608;2023-06-26T00:20:48;9.43;;;6.32;;
52188;SDS011;38162;45.926;13.608;2023-06-26T00:23:16;7.85;;;6.60;;
52188;SDS011;38162;45.926;13.608;2023-06-26T00:25:42;8.68;;;6.78;;
52188;SDS011;38162;45.926;13.608;2023-06-26T00:28:08;7.07;;;6.22;;
52188;SDS011;38162;45.926;13.608;2023-06-26T00:30:34;7.65;;;6.20;;
52188;SDS011;38162;45.926;13.608;2023-06-26T00:33:00;9.70;;;6.80;;
52188;SDS011;38162;45.926;13.608;2023-06-26T00:35:26;9.73;;;6.95;;
52188;SDS011;38162;45.926;13.608;2023-06-26T00:37:52;10.20;;;6.57;;
52188;SDS011;38162;45.926;13.608;2023-06-26T00:40:17;11.18;;;6.88;;
52188;SDS011;38162;45.926;13.608;2023-06-26T00:42:43;7.10;;;6.40;;
52188;SDS011;38162;45.926;13.608;2023-06-26T00:45:09;7.43;;;6.68;;
52188;SDS011;38162;45.926;13.608;2023-06-26T00:47:35;7.78;;;6.97;;
52188;SDS011;38162;45.926;13.608;2023-06-26T00:50:02;10.60;;;6.50;;
52188;SDS011;38162;45.926;13.608;2023-06-26T00:52:28;7.70;;;6.90;;
52188;SDS011;38162;45.926;13.608;2023-06-26T00:54:54;8.68;;;7.40;;
52188;SDS011;38162;45.926;13.608;2023-06-26T00:57:21;10.05;;;6.28;;
52188;SDS011;38162;45.926;13.608;2023-06-26T00:59:47;8.30;;;6.72;;
52188;SDS011;38162;45.926;13.608;2023-06-26T01:02:14;7.65;;;6.85;;
52188;SDS011;38162;45.926;13.608;2023-06-26T01:04:42;7.57;;;6.72;;
52188;SDS011;38162;45.926;13.608;2023-06-26T01:07:12;8.57;;;7.00;;
52188;SDS011;38162;45.926;13.608;2023-06-26T01:09:39;7.72;;;6.93;;
52188;SDS011;38162;45.926;13.608;2023-06-26T01:12:05;12.35;;;7.03;;
52188;SDS011;38162;45.926;13.608;2023-06-26T01:14:31;10.98;;;6.95;;
52188;SDS011;38162;45.926;13.608;2023-06-26T01:16:58;9.27;;;6.90;;
52188;SDS011;38162;45.926;13.608;2023-06-26T01:19:27;9.20;;;7.28;;
52188;SDS011;38162;45.926;13.608;2023-06-26T01:21:58;8.35;;;6.70;;
52188;SDS011;38162;45.926;13.608;2023-06-26T01:24:39;9.45;;;6.95;;
52188;SDS011;38162;45.926;13.608;2023-06-26T01:27:13;10.40;;;7.70;;
52188;SDS011;38162;45.926;13.608;2023-06-26T01:29:39;8.10;;;6.70;;
52188;SDS011;38162;45.926;13.608;2023-06-26T01:32:07;9.00;;;7.07;;
52188;SDS011;38162;45.926;13.608;2023-06-26T01:34:33;7.95;;;7.15;;
52188;SDS011;38162;45.926;13.608;2023-06-26T01:36:59;8.77;;;7.22;;
52188;SDS011;38162;45.926;13.608;2023-06-26T01:39:25;8.18;;;7.35;;
52188;SDS011;38162;45.926;13.608;2023-06-26T01:41:51;8.15;;;7.25;;
52188;SDS011;38162;45.926;13.608;2023-06-26T01:44:26;7.85;;;7.05;;
52188;SDS011;38162;45.926;13.608;2023-06-26T01:47:04;10.07;;;6.95;;
52188;SDS011;38162;45.926;13.608;2023-06-26T01:49:35;9.07;;;7.20;;
52188;SDS011;38162;45.926;13.608;2023-06-26T01:52:12;7.97;;;7.18;;
52188;SDS011;38162;45.926;13.608;2023-06-26T01:54:49;9.63;;;6.78;;
52188;SDS011;38162;45.926;13.608;2023-06-26T01:57:26;11.82;;;7.50;;
52188;SDS011;38162;45.926;13.608;2023-06-26T01:59:53;9.00;;;7.07;;
52188;SDS011;38162;45.926;13.608;2023-06-26T02:02:22;8.18;;;7.15;;
52188;SDS011;38162;45.926;13.608;2023-06-26T02:04:49;16.27;;;7.20;;
52188;SDS011;38162;45.926;13.608;2023-06-26T02:07:16;8.98;;;7.28;;
52188;SDS011;38162;45.926;13.608;2023-06-26T02:09:41;8.27;;;7.00;;
52188;SDS011;38162;45.926;13.608;2023-06-26T02:12:08;8.02;;;6.55;;
52188;SDS011;38162;45.926;13.608;2023-06-26T02:14:34;8.82;;;7.25;;
52188;SDS011;38162;45.926;13.608;2023-06-26T02:17:00;12.48;;;7.70;;
52188;SDS011;38162;45.926;13.608;2023-06-26T02:19:26;9.30;;;6.70;;
52188;SDS011;38162;45.926;13.608;2023-06-26T02:21:53;7.85;;;6.85;;
52188;SDS011;38162;45.926;13.608;2023-06-26T02:24:19;9.63;;;7.35;;
52188;SDS011;38162;45.926;13.608;2023-06-26T02:26:44;7.75;;;7.05;;
52188;SDS011;38162;45.926;13.608;2023-06-26T02:29:11;9.90;;;6.53;;
52188;SDS011;38162;45.926;13.608;2023-06-26T02:31:37;13.57;;;6.90;;
52188;SDS011;38162;45.926;13.608;2023-06-26T02:34:03;8.48;;;6.97;;
52188;SDS011;38162;45.926;13.608;2023-06-26T02:36:29;8.75;;;7.07;;
52188;SDS011;38162;45.926;13.608;2023-06-26T02:38:55;8.25;;;7.15;;
52188;SDS011;38162;45.926;13.608;2023-06-26T02:41:21;8.02;;;6.63;;
52188;SDS011;38162;45.926;13.608;2023-06-26T02:43:47;8.10;;;7.30;;
52188;SDS011;38162;45.926;13.608;2023-06-26T02:46:12;8.02;;;7.22;;
52188;SDS011;38162;45.926;13.608;2023-06-26T02:48:38;8.05;;;7.10;;
52188;SDS011;38162;45.926;13.608;2023-06-26T02:51:04;7.80;;;6.78;;
52188;SDS011;38162;45.926;13.608;2023-06-26T02:53:30;8.60;;;7.18;;
52188;SDS011;38162;45.926;13.608;2023-06-26T02:55:56;8.18;;;6.90;;
52188;SDS011;38162;45.926;13.608;2023-06-26T02:58:22;8.13;;;7.32;;
52188;SDS011;38162;45.926;13.608;2023-06-26T03:00:48;7.15;;;6.50;;
52188;SDS011;38162;45.926;13.608;2023-06-26T03:03:13;16.98;;;7.95;;
52188;SDS011;38162;45.926;13.608;2023-06-26T03:05:39;11.70;;;7.18;;
52188;SDS011;38162;45.926;13.608;2023-06-26T03:08:05;11.20;;;7.35;;
52188;SDS011;38162;45.926;13.608;2023-06-26T03:10:31;8.27;;;7.47;;
52188;SDS011;38162;45.926;13.608;2023-06-26T03:12:56;8.68;;;7.50;;
52188;SDS011;38162;45.926;13.608;2023-06-26T03:15:22;8.05;;;7.25;;
52188;SDS011;38162;45.926;13.608;2023-06-26T03:17:48;8.25;;;7.32;;
52188;SDS011;38162;45.926;13.608;2023-06-26T03:20:13;9.25;;;7.13;;
52188;SDS011;38162;45.926;13.608;2023-06-26T03:22:40;10.90;;;7.43;;
52188;SDS011;38162;45.926;13.608;2023-06-26T03:25:06;13.25;;;7.32;;
52188;SDS011;38162;45.926;13.608;2023-06-26T03:27:32;8.43;;;7.53;;
52188;SDS011;38162;45.926;13.608;2023-06-26T03:29:58;10.75;;;7.60;;
52188;SDS011;38162;45.926;13.608;2023-06-26T03:32:24;10.00;;;7.70;;
52188;SDS011;38162;45.926;13.608;2023-06-26T03:34:50;8.70;;;7.85;;
52188;SDS011;38162;45.926;13.608;2023-06-26T03:37:15;8.27;;;7.47;;
52188;SDS011;38162;45.926;13.608;2023-06-26T03:39:41;11.07;;;7.85;;
52188;SDS011;38162;45.926;13.608;2023-06-26T03:42:07;8.63;;;7.22;;
52188;SDS011;38162;45.926;13.608;2023-06-26T03:44:33;12.45;;;8.00;;
52188;SDS011;38162;45.926;13.608;2023-06-26T03:46:58;9.35;;;7.28;;
52188;SDS011;38162;45.926;13.608;2023-06-26T03:49:24;8.48;;;7.68;;
52188;SDS011;38162;45.926;13.608;2023-06-26T03:51:50;9.77;;;7.60;;
52188;SDS011;38162;45.926;13.608;2023-06-26T03:54:16;8.27;;;6.97;;
52188;SDS011;38162;45.926;13.608;2023-06-26T03:56:42;9.10;;;7.70;;
52188;SDS011;38162;45.926;13.608;2023-06-26T03:59:07;9.77;;;7.53;;
52188;SDS011;38162;45.926;13.608;2023-06-26T04:01:33;9.95;;;7.30;;
52188;SDS011;38162;45.926;13.608;2023-06-26T04:04:01;10.23;;;7.82;;
52188;SDS011;38162;45.926;13.608;2023-06-26T04:06:28;7.90;;;7.10;;
52188;SDS011;38162;45.926;13.608;2023-06-26T04:08:54;8.90;;;7.82;;
52188;SDS011;38162;45.926;13.608;2023-06-26T04:11:20;8.63;;;7.82;;
52188;SDS011;38162;45.926;13.608;2023-06-26T04:13:45;10.65;;;7.13;;
52188;SDS011;38162;45.926;13.608;2023-06-26T04:16:11;9.07;;;7.25;;
52188;SDS011;38162;45.926;13.608;2023-06-26T04:18:37;10.38;;;7.13;;
52188;SDS011;38162;45.926;13.608;2023-06-26T04:21:09;8.45;;;7.47;;
52188;SDS011;38162;45.926;13.608;2023-06-26T04:23:36;9.45;;;7.40;;
52188;SDS011;38162;45.926;13.608;2023-06-26T04:26:03;8.55;;;6.97;;
52188;SDS011;38162;45.926;13.608;2023-06-26T04:28:33;13.20;;;7.80;;
52188;SDS011;38162;45.926;13.608;2023-06-26T04:31:00;8.80;;;6.90;;
52188;SDS011;38162;45.926;13.608;2023-06-26T04:33:27;12.27;;;8.02;;
52188;SDS011;38162;45.926;13.608;2023-06-26T04:35:53;9.15;;;7.57;;
52188;SDS011;38162;45.926;13.608;2023-06-26T04:38:19;9.48;;;7.70;;
52188;SDS011;38162;45.926;13.608;2023-06-26T04:40:46;12.50;;;7.75;;
52188;SDS011;38162;45.926;13.608;2023-06-26T04:43:12;14.20;;;7.57;;
52188;SDS011;38162;45.926;13.608;2023-06-26T04:45:38;8.18;;;7.35;;
52188;SDS011;38162;45.926;13.608;2023-06-26T04:48:04;12.98;;;6.95;;
52188;SDS011;38162;45.926;13.608;2023-06-26T04:50:30;9.77;;;7.32;;
52188;SDS011;38162;45.926;13.608;2023-06-26T04:52:56;9.80;;;7.68;;
52188;SDS011;38162;45.926;13.608;2023-06-26T04:55:23;9.23;;;7.65;;
52188;SDS011;38162;45.926;13.608;2023-06-26T04:57:50;16.52;;;8.10;;
52188;SDS011;38162;45.926;13.608;2023-06-26T05:00:16;12.10;;;7.93;;
52188;SDS011;38162;45.926;13.608;2023-06-26T05:02:42;11.88;;;8.00;;
52188;SDS011;38162;45.926;13.608;2023-06-26T05:05:08;13.23;;;8.38;;
52188;SDS011;38162;45.926;13.608;2023-06-26T05:07:34;14.52;;;8.48;;
52188;SDS011;38162;45.926;13.608;2023-06-26T05:09:59;12.02;;;8.65;;
52188;SDS011;38162;45.926;13.608;2023-06-26T05:12:25;11.05;;;7.43;;
52188;SDS011;38162;45.926;13.608;2023-06-26T05:14:51;17.02;;;8.00;;
52188;SDS011;38162;45.926;13.608;2023-06-26T05:17:16;9.18;;;7.35;;
52188;SDS011;38162;45.926;13.608;2023-06-26T05:19:42;13.77;;;8.07;;
52188;SDS011;38162;45.926;13.608;2023-06-26T05:22:08;12.77;;;7.75;;
52188;SDS011;38162;45.926;13.608;2023-06-26T05:24:37;10.45;;;7.63;;
52188;SDS011;38162;45.926;13.608;2023-06-26T05:27:04;10.82;;;8.38;;
52188;SDS011;38162;45.926;13.608;2023-06-26T05:29:31;12.85;;;8.60;;
52188;SDS011;38162;45.926;13.608;2023-06-26T05:31:57;15.82;;;8.20;;
52188;SDS011;38162;45.926;13.608;2023-06-26T05:34:25;8.60;;;7.43;;
52188;SDS011;38162;45.926;13.608;2023-06-26T05:36:55;11.95;;;7.53;;
52188;SDS011;38162;45.926;13.608;2023-06-26T05:39:23;13.18;;;8.00;;
52188;SDS011;38162;45.926;13.608;2023-06-26T05:41:49;10.98;;;8.15;;
52188;SDS011;38162;45.926;13.608;2023-06-26T05:44:16;10.50;;;7.32;;
52188;SDS011;38162;45.926;13.608;2023-06-26T05:46:41;11.38;;;7.88;;
52188;SDS011;38162;45.926;13.608;2023-06-26T05:49:08;8.55;;;7.55;;
52188;SDS011;38162;45.926;13.608;2023-06-26T05:51:34;15.15;;;7.75;;
52188;SDS011;38162;45.926;13.608;2023-06-26T05:54:00;12.23;;;7.97;;
52188;SDS011;38162;45.926;13.608;2023-06-26T05:56:26;15.05;;;8.00;;
52188;SDS011;38162;45.926;13.608;2023-06-26T05:58:52;15.35;;;7.60;;
52188;SDS011;38162;45.926;13.608;2023-06-26T06:01:18;9.93;;;7.82;;
52188;SDS011;38162;45.926;13.608;2023-06-26T06:03:44;9.80;;;7.60;;
52188;SDS011;38162;45.926;13.608;2023-06-26T06:06:11;13.80;;;7.18;;
52188;SDS011;38162;45.926;13.608;2023-06-26T06:08:37;11.80;;;7.88;;
52188;SDS011;38162;45.926;13.608;2023-06-26T06:11:02;10.25;;;7.70;;
52188;SDS011;38162;45.926;13.608;2023-06-26T06:13:28;11.98;;;7.50;;
52188;SDS011;38162;45.926;13.608;2023-06-26T06:15:54;7.35;;;6.47;;
52188;SDS011;38162;45.926;13.608;2023-06-26T06:18:21;7.93;;;7.10;;
52188;SDS011;38162;45.926;13.608;2023-06-26T06:20:47;7.95;;;7.13;;
52188;SDS011;38162;45.926;13.608;2023-06-26T06:23:12;9.73;;;8.00;;
52188;SDS011;38162;45.926;13.608;2023-06-26T06:25:38;8.07;;;7.25;;
52188;SDS011;38162;45.926;13.608;2023-06-26T06:28:04;11.80;;;7.38;;
52188;SDS011;38162;45.926;13.608;2023-06-26T06:30:30;8.55;;;7.68;;
52188;SDS011;38162;45.926;13.608;2023-06-26T06:32:57;8.82;;;7.57;;
52188;SDS011;38162;45.926;13.608;2023-06-26T06:35:23;10.38;;;7.65;;
52188;SDS011;38162;45.926;13.608;2023-06-26T06:37:49;9.73;;;7.80;;
52188;SDS011;38162;45.926;13.608;2023-06-26T06:40:15;9.43;;;7.10;;
52188;SDS011;38162;45.926;13.608;2023-06-26T06:42:41;11.07;;;7.50;;
52188;SDS011;38162;45.926;13.608;2023-06-26T06:45:07;8.63;;;7.55;;
52188;SDS011;38162;45.926;13.608;2023-06-26T06:47:34;11.35;;;7.75;;
52188;SDS011;38162;45.926;13.608;2023-06-26T06:50:00;9.35;;;7.65;;
52188;SDS011;38162;45.926;13.608;2023-06-26T06:52:36;9.45;;;7.80;;
52188;SDS011;38162;45.926;13.608;2023-06-26T06:55:03;9.23;;;7.57;;
52188;SDS011;38162;45.926;13.608;2023-06-26T06:57:33;8.52;;;7.45;;
52188;SDS011;38162;45.926;13.608;2023-06-26T07:00:05;7.93;;;7.13;;
52188;SDS011;38162;45.926;13.608;2023-06-26T07:02:37;7.93;;;7.15;;
52188;SDS011;38162;45.926;13.608;2023-06-26T07:05:04;9.95;;;7.53;;
52188;SDS011;38162;45.926;13.608;2023-06-26T07:07:31;9.15;;;7.10;;
52188;SDS011;38162;45.926;13.608;2023-06-26T07:10:00;9.55;;;7.30;;
52188;SDS011;38162;45.926;13.608;2023-06-26T07:12:35;8.18;;;7.20;;
52188;SDS011;38162;45.926;13.608;2023-06-26T07:15:02;9.70;;;7.18;;
52188;SDS011;38162;45.926;13.608;2023-06-26T07:17:30;8.93;;;7.32;;
52188;SDS011;38162;45.926;13.608;2023-06-26T07:19:59;9.10;;;7.85;;
52188;SDS011;38162;45.926;13.608;2023-06-26T07:22:25;12.77;;;8.10;;
52188;SDS011;38162;45.926;13.608;2023-06-26T07:24:51;12.18;;;7.35;;
52188;SDS011;38162;45.926;13.608;2023-06-26T07:27:18;11.63;;;7.18;;
52188;SDS011;38162;45.926;13.608;2023-06-26T07:29:44;10.55;;;7.22;;
52188;SDS011;38162;45.926;13.608;2023-06-26T07:32:10;13.05;;;7.82;;
52188;SDS011;38162;45.926;13.608;2023-06-26T07:34:36;11.13;;;7.60;;
52188;SDS011;38162;45.926;13.608;2023-06-26T07:37:02;10.02;;;7.82;;
52188;SDS011;38162;45.926;13.608;2023-06-26T07:39:29;11.70;;;7.03;;
52188;SDS011;38162;45.926;13.608;2023-06-26T07:41:54;11.25;;;7.95;;
52188;SDS011;38162;45.926;13.608;2023-06-26T07:44:21;10.07;;;7.35;;
52188;SDS011;38162;45.926;13.608;2023-06-26T07:46:47;9.70;;;7.20;;
52188;SDS011;38162;45.926;13.608;2023-06-26T07:49:12;9.02;;;6.90;;
52188;SDS011;38162;45.926;13.608;2023-06-26T07:51:38;8.60;;;7.38;;
52188;SDS011;38162;45.926;13.608;2023-06-26T07:54:04;8.52;;;7.35;;
52188;SDS011;38162;45.926;13.608;2023-06-26T07:56:30;8.40;;;7.53;;
52188;SDS011;38162;45.926;13.608;2023-06-26T07:58:55;11.43;;;7.50;;
52188;SDS011;38162;45.926;13.608;2023-06-26T08:01:23;12.93;;;7.53;;
52188;SDS011;38162;45.926;13.608;2023-06-26T08:03:49;8.73;;;7.82;;
52188;SDS011;38162;45.926;13.608;2023-06-26T08:06:15;9.40;;;7.75;;
52188;SDS011;38162;45.926;13.608;2023-06-26T08:08:41;8.80;;;7.20;;
52188;SDS011;38162;45.926;13.608;2023-06-26T08:11:07;8.32;;;7.10;;
52188;SDS011;38162;45.926;13.608;2023-06-26T08:13:32;9.18;;;7.30;;
52188;SDS011;38162;45.926;13.608;2023-06-26T08:15:58;12.40;;;6.93;;
52188;SDS011;38162;45.926;13.608;2023-06-26T08:18:24;9.90;;;6.57;;
52188;SDS011;38162;45.926;13.608;2023-06-26T08:20:49;9.23;;;6.88;;
52188;SDS011;38162;45.926;13.608;2023-06-26T08:23:15;8.30;;;6.80;;
52188;SDS011;38162;45.926;13.608;2023-06-26T08:25:41;11.98;;;7.25;;
52188;SDS011;38162;45.926;13.608;2023-06-26T08:28:07;9.07;;;7.32;;
52188;SDS011;38162;45.926;13.608;2023-06-26T08:30:33;11.27;;;7.50;;
52188;SDS011;38162;45.926;13.608;2023-06-26T08:32:58;9.52;;;7.13;;
52188;SDS011;38162;45.926;13.608;2023-06-26T08:35:24;13.63;;;6.85;;
52188;SDS011;38162;45.926;13.608;2023-06-26T08:37:50;8.57;;;6.85;;
52188;SDS011;38162;45.926;13.608;2023-06-26T08:40:16;12.32;;;6.90;;
52188;SDS011;38162;45.926;13.608;2023-06-26T08:42:43;9.77;;;7.05;;
52188;SDS011;38162;45.926;13.608;2023-06-26T08:45:10;9.38;;;6.95;;
52188;SDS011;38162;45.926;13.608;2023-06-26T08:47:36;9.20;;;7.20;;
52188;SDS011;38162;45.926;13.608;2023-06-26T08:52:44;9.80;;;6.57;;
52188;SDS011;38162;45.926;13.608;2023-06-26T08:55:15;12.75;;;6.75;;
52188;SDS011;38162;45.926;13.608;2023-06-26T08:57:41;7.60;;;6.65;;
52188;SDS011;38162;45.926;13.608;2023-06-26T09:00:07;7.57;;;6.32;;
52188;SDS011;38162;45.926;13.608;2023-06-26T09:02:37;10.82;;;6.30;;
52188;SDS011;38162;45.926;13.608;2023-06-26T09:05:04;11.52;;;6.88;;
52188;SDS011;38162;45.926;13.608;2023-06-26T09:07:30;7.60;;;6.80;;
52188;SDS011;38162;45.926;13.608;2023-06-26T09:09:56;9.48;;;6.82;;
52188;SDS011;38162;45.926;13.608;2023-06-26T09:12:21;7.72;;;6.70;;
52188;SDS011;38162;45.926;13.608;2023-06-26T09:14:47;8.27;;;6.72;;
52188;SDS011;38162;45.926;13.608;2023-06-26T09:17:14;8.10;;;6.35;;
52188;SDS011;38162;45.926;13.608;2023-06-26T09:19:40;8.50;;;6.38;;
52188;SDS011;38162;45.926;13.608;2023-06-26T09:22:10;7.60;;;6.80;;
52188;SDS011;38162;45.926;13.608;2023-06-26T09:24:38;8.15;;;6.70;;
52188;SDS011;38162;45.926;13.608;2023-06-26T09:27:07;12.43;;;6.80;;
52188;SDS011;38162;45.926;13.608;2023-06-26T09:29:33;8.10;;;6.57;;
52188;SDS011;38162;45.926;13.608;2023-06-26T09:31:59;8.80;;;7.00;;
52188;SDS011;38162;45.926;13.608;2023-06-26T09:34:32;7.97;;;6.82;;
52188;SDS011;38162;45.926;13.608;2023-06-26T09:36:58;9.68;;;6.45;;
52188;SDS011;38162;45.926;13.608;2023-06-26T09:39:29;9.65;;;6.53;;
52188;SDS011;38162;45.926;13.608;2023-06-26T09:41:56;11.88;;;6.65;;
52188;SDS011;38162;45.926;13.608;2023-06-26T09:44:22;7.72;;;6.93;;
52188;SDS011;38162;45.926;13.608;2023-06-26T09:46:48;7.90;;;6.40;;
52188;SDS011;38162;45.926;13.608;2023-06-26T09:49:14;7.50;;;6.15;;
52188;SDS011;38162;45.926;13.608;2023-06-26T09:51:41;10.00;;;6.05;;
52188;SDS011;38162;45.926;13.608;2023-06-26T09:54:07;7.53;;;6.75;;
52188;SDS011;38162;45.926;13.608;2023-06-26T09:56:34;8.63;;;6.28;;
52188;SDS011;38162;45.926;13.608;2023-06-26T09:59:01;8.93;;;7.07;;
52188;SDS011;38162;45.926;13.608;2023-06-26T10:01:28;8.07;;;6.25;;
52188;SDS011;38162;45.926;13.608;2023-06-26T10:03:55;8.88;;;5.82;;
52188;SDS011;38162;45.926;13.608;2023-06-26T10:06:28;8.25;;;6.40;;
52188;SDS011;38162;45.926;13.608;2023-06-26T10:09:03;8.45;;;6.57;;
52188;SDS011;38162;45.926;13.608;2023-06-26T10:11:32;9.13;;;6.53;;
52188;SDS011;38162;45.926;13.608;2023-06-26T10:14:04;7.93;;;6.15;;
52188;SDS011;38162;45.926;13.608;2023-06-26T10:16:32;7.95;;;6.75;;
52188;SDS011;38162;45.926;13.608;2023-06-26T10:19:02;6.55;;;5.72;;
52188;SDS011;38162;45.926;13.608;2023-06-26T10:23:59;7.15;;;6.30;;
52188;SDS011;38162;45.926;13.608;2023-06-26T10:26:28;13.70;;;6.70;;
52188;SDS011;38162;45.926;13.608;2023-06-26T10:28:54;7.07;;;6.30;;
52188;SDS011;38162;45.926;13.608;2023-06-26T10:31:23;13.30;;;6.72;;
52188;SDS011;38162;45.926;13.608;2023-06-26T10:33:51;8.57;;;6.95;;
52188;SDS011;38162;45.926;13.608;2023-06-26T10:36:27;8.63;;;6.30;;
52188;SDS011;38162;45.926;13.608;2023-06-26T10:38:57;6.95;;;6.22;;
52188;SDS011;38162;45.926;13.608;2023-06-26T10:41:26;7.50;;;6.80;;
52188;SDS011;38162;45.926;13.608;2023-06-26T10:46:24;7.47;;;5.85;;
52188;SDS011;38162;45.926;13.608;2023-06-26T10:48:58;7.22;;;6.53;;
52188;SDS011;38162;45.926;13.608;2023-06-26T10:51:28;10.13;;;6.10;;
52188;SDS011;38162;45.926;13.608;2023-06-26T10:53:57;9.57;;;6.97;;
52188;SDS011;38162;45.926;13.608;2023-06-26T10:59:14;7.18;;;6.05;;
52188;SDS011;38162;45.926;13.608;2023-06-26T11:04:46;10.10;;;6.68;;
52188;SDS011;38162;45.926;13.608;2023-06-26T11:07:21;10.15;;;6.15;;
52188;SDS011;38162;45.926;13.608;2023-06-26T11:15:25;9.05;;;6.90;;
52188;SDS011;38162;45.926;13.608;2023-06-26T11:17:52;7.35;;;6.63;;
52188;SDS011;38162;45.926;13.608;2023-06-26T11:20:19;9.63;;;6.80;;
52188;SDS011;38162;45.926;13.608;2023-06-26T11:22:45;9.75;;;6.50;;
52188;SDS011;38162;45.926;13.608;2023-06-26T11:25:11;8.15;;;6.15;;
52188;SDS011;38162;45.926;13.608;2023-06-26T11:27:38;7.88;;;6.68;;
52188;SDS011;38162;45.926;13.608;2023-06-26T11:30:07;6.57;;;5.93;;
52188;SDS011;38162;45.926;13.608;2023-06-26T11:32:38;7.38;;;6.55;;
52188;SDS011;38162;45.926;13.608;2023-06-26T11:35:04;8.43;;;6.53;;
52188;SDS011;38162;45.926;13.608;2023-06-26T11:37:31;9.15;;;6.25;;
52188;SDS011;38162;45.926;13.608;2023-06-26T11:39:57;6.95;;;6.25;;
52188;SDS011;38162;45.926;13.608;2023-06-26T11:42:23;8.48;;;6.28;;
52188;SDS011;38162;45.926;13.608;2023-06-26T11:44:50;7.25;;;6.53;;
52188;SDS011;38162;45.926;13.608;2023-06-26T11:47:17;8.95;;;6.47;;
52188;SDS011;38162;45.926;13.608;2023-06-26T11:49:48;7.38;;;6.05;;
52188;SDS011;38162;45.926;13.608;2023-06-26T11:52:14;10.55;;;7.05;;
52188;SDS011;38162;45.926;13.608;2023-06-26T11:54:41;8.93;;;5.97;;
52188;SDS011;38162;45.926;13.608;2023-06-26T11:57:07;7.57;;;6.63;;
52188;SDS011;38162;45.926;13.608;2023-06-26T11:59:34;7.05;;;6.32;;
52188;SDS011;38162;45.926;13.608;2023-06-26T12:02:04;6.40;;;5.75;;
52188;SDS011;38162;45.926;13.608;2023-06-26T12:04:35;6.75;;;5.90;;
52188;SDS011;38162;45.926;13.608;2023-06-26T12:07:02;8.10;;;6.35;;
52188;SDS011;38162;45.926;13.608;2023-06-26T12:09:30;8.25;;;6.20;;
52188;SDS011;38162;45.926;13.608;2023-06-26T12:11:58;7.60;;;5.82;;
52188;SDS011;38162;45.926;13.608;2023-06-26T12:14:25;8.70;;;6.35;;
52188;SDS011;38162;45.926;13.608;2023-06-26T12:16:53;7.40;;;6.22;;
52188;SDS011;38162;45.926;13.608;2023-06-26T12:19:24;10.80;;;6.20;;
52188;SDS011;38162;45.926;13.608;2023-06-26T12:21:53;8.27;;;6.07;;
52188;SDS011;38162;45.926;13.608;2023-06-26T12:24:21;11.38;;;6.65;;
52188;SDS011;38162;45.926;13.608;2023-06-26T12:26:51;8.40;;;6.40;;
52188;SDS011;38162;45.926;13.608;2023-06-26T12:29:21;10.90;;;6.80;;
52188;SDS011;38162;45.926;13.608;2023-06-26T12:31:54;6.65;;;5.95;;
52188;SDS011;38162;45.926;13.608;2023-06-26T12:34:20;7.57;;;6.40;;
52188;SDS011;38162;45.926;13.608;2023-06-26T12:36:50;6.90;;;6.20;;
52188;SDS011;38162;45.926;13.608;2023-06-26T12:39:17;10.40;;;6.20;;
52188;SDS011;38162;45.926;13.608;2023-06-26T12:41:47;11.05;;;6.47;;
52188;SDS011;38162;45.926;13.608;2023-06-26T12:44:28;8.17;;;6.10;;
52188;SDS011;38162;45.926;13.608;2023-06-26T12:46:56;8.60;;;6.22;;
52188;SDS011;38162;45.926;13.608;2023-06-26T12:49:56;9.23;;;6.60;;
52188;SDS011;38162;45.926;13.608;2023-06-26T12:52:16;7.07;;;6.00;;
52188;SDS011;38162;45.926;13.608;2023-06-26T12:54:44;10.52;;;6.20;;
52188;SDS011;38162;45.926;13.608;2023-06-26T12:57:12;7.07;;;6.35;;
52188;SDS011;38162;45.926;13.608;2023-06-26T12:59:40;12.43;;;6.60;;
52188;SDS011;38162;45.926;13.608;2023-06-26T13:02:07;14.30;;;6.60;;
52188;SDS011;38162;45.926;13.608;2023-06-26T13:04:33;10.32;;;5.97;;
52188;SDS011;38162;45.926;13.608;2023-06-26T13:06:59;8.45;;;6.82;;
52188;SDS011;38162;45.926;13.608;2023-06-26T13:09:25;6.68;;;5.97;;
52188;SDS011;38162;45.926;13.608;2023-06-26T13:11:51;9.38;;;6.55;;
52188;SDS011;38162;45.926;13.608;2023-06-26T13:14:18;12.52;;;6.55;;
52188;SDS011;38162;45.926;13.608;2023-06-26T13:16:43;8.57;;;6.75;;
52188;SDS011;38162;45.926;13.608;2023-06-26T13:19:09;7.05;;;6.30;;
52188;SDS011;38162;45.926;13.608;2023-06-26T13:21:35;7.38;;;6.57;;
52188;SDS011;38162;45.926;13.608;2023-06-26T13:24:01;11.68;;;6.47;;
52188;SDS011;38162;45.926;13.608;2023-06-26T13:26:29;11.93;;;6.80;;
52188;SDS011;38162;45.926;13.608;2023-06-26T13:28:55;12.45;;;6.50;;
52188;SDS011;38162;45.926;13.608;2023-06-26T13:31:21;8.80;;;6.35;;
52188;SDS011;38162;45.926;13.608;2023-06-26T13:33:47;15.88;;;6.55;;
52188;SDS011;38162;45.926;13.608;2023-06-26T13:36:22;10.45;;;6.55;;
52188;SDS011;38162;45.926;13.608;2023-06-26T13:38:47;13.88;;;7.03;;
52188;SDS011;38162;45.926;13.608;2023-06-26T13:41:20;8.85;;;6.57;;
52188;SDS011;38162;45.926;13.608;2023-06-26T13:43:47;17.63;;;7.00;;
52188;SDS011;38162;45.926;13.608;2023-06-26T13:46:12;9.13;;;6.25;;
52188;SDS011;38162;45.926;13.608;2023-06-26T13:48:38;10.50;;;6.38;;
52188;SDS011;38162;45.926;13.608;2023-06-26T13:51:04;9.52;;;7.43;;
52188;SDS011;38162;45.926;13.608;2023-06-26T13:53:29;10.98;;;6.40;;
52188;SDS011;38162;45.926;13.608;2023-06-26T13:55:55;10.95;;;6.63;;
52188;SDS011;38162;45.926;13.608;2023-06-26T13:58:21;8.98;;;6.00;;
52188;SDS011;38162;45.926;13.608;2023-06-26T14:00:47;11.75;;;6.70;;
52188;SDS011;38162;45.926;13.608;2023-06-26T14:03:13;13.60;;;7.10;;
52188;SDS011;38162;45.926;13.608;2023-06-26T14:05:39;12.93;;;6.60;;
52188;SDS011;38162;45.926;13.608;2023-06-26T14:08:06;10.30;;;6.70;;
52188;SDS011;38162;45.926;13.608;2023-06-26T14:10:33;11.40;;;6.40;;
52188;SDS011;38162;45.926;13.608;2023-06-26T14:13:00;8.25;;;6.00;;
52188;SDS011;38162;45.926;13.608;2023-06-26T14:15:26;11.35;;;6.43;;
52188;SDS011;38162;45.926;13.608;2023-06-26T14:17:51;9.63;;;6.20;;
52188;SDS011;38162;45.926;13.608;2023-06-26T14:20:17;8.52;;;6.60;;
52188;SDS011;38162;45.926;13.608;2023-06-26T14:22:47;9.70;;;6.45;;
52188;SDS011;38162;45.926;13.608;2023-06-26T14:25:13;9.07;;;6.60;;
52188;SDS011;38162;45.926;13.608;2023-06-26T14:27:40;13.40;;;6.32;;
52188;SDS011;38162;45.926;13.608;2023-06-26T14:30:06;13.30;;;6.50;;
52188;SDS011;38162;45.926;13.608;2023-06-26T14:32:32;6.78;;;5.45;;
52188;SDS011;38162;45.926;13.608;2023-06-26T14:34:59;9.38;;;6.10;;
52188;SDS011;38162;45.926;13.608;2023-06-26T14:37:25;16.55;;;6.82;;
52188;SDS011;38162;45.926;13.608;2023-06-26T14:39:51;7.93;;;6.25;;
52188;SDS011;38162;45.926;13.608;2023-06-26T14:42:17;13.50;;;6.60;;
52188;SDS011;38162;45.926;13.608;2023-06-26T14:44:43;12.90;;;6.63;;
52188;SDS011;38162;45.926;13.608;2023-06-26T14:47:12;7.35;;;6.32;;
52188;SDS011;38162;45.926;13.608;2023-06-26T14:49:39;12.23;;;6.13;;